Diadema Argentina, Argentina
Current Conditions -  °F | °C
As of 1:00 PM on Friday 24 Oct 2014 (Local Time) from SAVC Reporting Station
Clear Clear  
Wind Chill: 20°   Ceiling: Unl
Heat Index: 20°   Visibility: 6mi
Dew Point:   Wind: 8mph
Humidity: 30%   Direction: 110°ESE
Pressure: 29.97"   Gusts: NA
Location:  45.77°S, 67.67°W
Report Text: SAVC 241600Z 11007KT CAVOK 20/02 Q1015
Loading
Personal Weather Stations






























Interactive Weather Map
Tropical Storm Tracking
New forecast layout! Learn more

10-Day Weather Forecast

Advertisements
Track Severe Weather on mobile